createdAt,value
2023-04-28T00:00:56.469Z,23.87
2023-04-28T00:01:56.456Z,23.89
2023-04-28T00:02:56.572Z,23.89
2023-04-28T00:03:56.583Z,23.90
2023-04-28T00:04:56.682Z,23.91
2023-04-28T00:05:56.627Z,23.92
2023-04-28T00:06:56.495Z,23.92
2023-04-28T00:07:56.488Z,23.91
2023-04-28T00:08:56.500Z,23.91
2023-04-28T00:09:56.526Z,23.91
2023-04-28T00:10:56.569Z,23.90
2023-04-28T00:11:56.527Z,23.91
2023-04-28T00:12:56.549Z,23.90
2023-04-28T00:13:56.568Z,23.91
2023-04-28T00:14:56.571Z,23.89
2023-04-28T00:15:56.622Z,23.90
2023-04-28T00:16:56.769Z,23.90
2023-04-28T00:17:56.697Z,23.90
2023-04-28T00:18:56.659Z,23.90
2023-04-28T00:19:56.621Z,23.89
2023-04-28T00:20:56.636Z,23.89
2023-04-28T00:21:56.656Z,23.89
2023-04-28T00:22:56.662Z,23.89
2023-04-28T00:23:56.676Z,23.89
2023-04-28T00:24:56.678Z,23.89
2023-04-28T00:25:56.697Z,23.89
2023-04-28T00:26:56.730Z,23.89
2023-04-28T00:27:56.715Z,23.90
2023-04-28T00:28:56.737Z,23.90
2023-04-28T00:29:56.741Z,23.89
2023-04-28T00:30:56.750Z,23.88
2023-04-28T00:31:56.945Z,23.89
2023-04-28T00:32:56.795Z,23.88
2023-04-28T00:33:56.814Z,23.89
2023-04-28T00:34:56.825Z,23.89
2023-04-28T00:35:56.819Z,23.89
2023-04-28T00:36:56.834Z,23.90
2023-04-28T00:37:56.855Z,23.89
2023-04-28T00:38:56.856Z,23.90
2023-04-28T00:39:56.855Z,23.90
2023-04-28T00:40:56.903Z,23.89
2023-04-28T00:41:56.888Z,23.89
2023-04-28T00:42:56.952Z,23.89
2023-04-28T00:43:56.898Z,23.88
2023-04-28T00:44:56.925Z,23.89
2023-04-28T00:45:56.998Z,23.89
2023-04-28T00:46:56.946Z,23.89
2023-04-28T00:47:56.972Z,23.89
2023-04-28T00:48:56.978Z,23.89
2023-04-28T00:49:57.007Z,23.89
2023-04-28T00:50:57.023Z,23.88
2023-04-28T00:51:57.036Z,23.89
2023-04-28T00:52:57.053Z,23.89
2023-04-28T00:53:57.061Z,23.90
2023-04-28T00:54:57.070Z,23.90
2023-04-28T00:55:57.127Z,23.91
2023-04-28T00:56:57.094Z,23.89
2023-04-28T00:57:57.112Z,23.89
2023-04-28T00:58:57.139Z,23.90
2023-04-28T00:59:57.124Z,23.90
2023-04-28T01:00:57.163Z,23.90
2023-04-28T01:01:57.139Z,23.90
2023-04-28T01:02:57.336Z,23.90
2023-04-28T01:03:57.300Z,23.89
2023-04-28T01:04:57.172Z,23.90
2023-04-28T01:05:57.180Z,23.89
2023-04-28T01:06:57.194Z,23.88
2023-04-28T01:07:57.212Z,23.89
2023-04-28T01:08:57.233Z,23.89
2023-04-28T01:09:57.239Z,23.88
2023-04-28T01:10:57.244Z,23.88
2023-04-28T01:11:57.266Z,23.87
2023-04-28T01:12:57.276Z,23.88
2023-04-28T01:13:57.309Z,23.87
2023-04-28T01:14:57.322Z,23.87
2023-04-28T01:15:57.312Z,23.87
2023-04-28T01:16:57.335Z,23.87
2023-04-28T01:17:57.407Z,23.87
2023-04-28T01:18:57.353Z,23.87
2023-04-28T01:19:57.378Z,23.87
2023-04-28T01:20:57.382Z,23.86
2023-04-28T01:21:57.407Z,23.87
2023-04-28T01:22:57.422Z,23.86
2023-04-28T01:23:57.417Z,23.86
2023-04-28T01:24:57.439Z,23.86
2023-04-28T01:25:57.458Z,23.86
2023-04-28T01:26:57.469Z,23.86
2023-04-28T01:27:57.550Z,23.86
2023-04-28T01:28:57.513Z,23.85
2023-04-28T01:29:57.533Z,23.86
2023-04-28T01:30:57.571Z,23.86
2023-04-28T01:31:57.645Z,23.85
2023-04-28T01:32:57.601Z,23.86
2023-04-28T01:33:57.605Z,23.86
2023-04-28T01:34:57.640Z,23.85
2023-04-28T01:35:57.660Z,23.86
2023-04-28T01:36:57.717Z,23.86
2023-04-28T01:37:57.687Z,23.86
2023-04-28T01:38:57.700Z,23.86
2023-04-28T01:39:57.715Z,23.86
2023-04-28T01:40:57.735Z,23.86
2023-04-28T01:41:57.760Z,23.87
2023-04-28T01:42:57.777Z,23.87
2023-04-28T01:43:57.805Z,23.86
2023-04-28T01:44:57.815Z,23.87
2023-04-28T01:45:57.845Z,23.87
2023-04-28T01:46:57.927Z,23.87
2023-04-28T01:47:57.928Z,23.87
2023-04-28T01:48:57.888Z,23.87
2023-04-28T01:49:57.900Z,23.86
2023-04-28T01:50:57.921Z,23.86
2023-04-28T01:51:57.940Z,23.86
2023-04-28T01:52:57.953Z,23.87
2023-04-28T01:53:57.965Z,23.86
2023-04-28T01:54:57.986Z,23.86
2023-04-28T01:55:58.003Z,23.86
2023-04-28T01:56:58.018Z,23.86
2023-04-28T01:57:58.032Z,23.87
2023-04-28T01:58:58.054Z,23.87
2023-04-28T01:59:58.063Z,23.87
2023-04-28T02:00:58.092Z,23.86
2023-04-28T02:01:58.104Z,23.87
2023-04-28T02:02:58.170Z,23.86
2023-04-28T02:03:58.250Z,23.87
2023-04-28T02:04:58.215Z,23.86
2023-04-28T02:05:58.137Z,23.86
2023-04-28T02:06:58.154Z,23.86
2023-04-28T02:07:58.176Z,23.85
2023-04-28T02:08:58.169Z,23.85
2023-04-28T02:09:58.182Z,23.86
2023-04-28T02:10:58.198Z,23.85
2023-04-28T02:11:58.223Z,23.86
2023-04-28T02:12:58.251Z,23.86
2023-04-28T02:13:58.246Z,23.86
2023-04-28T02:14:58.276Z,23.85
2023-04-28T02:15:58.346Z,23.85
2023-04-28T02:16:58.310Z,23.84
2023-04-28T02:17:58.378Z,23.85
2023-04-28T02:18:58.378Z,23.84
2023-04-28T02:19:58.385Z,23.84
2023-04-28T02:20:58.401Z,23.84
2023-04-28T02:21:58.426Z,23.85
2023-04-28T02:22:58.430Z,23.85
2023-04-28T02:23:58.465Z,23.85
2023-04-28T02:24:58.466Z,23.85
2023-04-28T02:25:58.498Z,23.85
2023-04-28T02:26:58.508Z,23.86
2023-04-28T02:27:58.531Z,23.85
2023-04-28T02:28:58.550Z,23.85
2023-04-28T02:29:58.579Z,23.84
2023-04-28T02:30:58.598Z,23.84
2023-04-28T02:31:58.670Z,23.85
2023-04-28T02:32:58.691Z,23.85
2023-04-28T02:33:58.655Z,23.85
2023-04-28T02:34:58.714Z,23.85
2023-04-28T02:35:58.703Z,23.85
2023-04-28T02:36:58.705Z,23.85
2023-04-28T02:37:58.733Z,23.85
2023-04-28T02:38:58.736Z,23.85
2023-04-28T02:39:58.752Z,23.85
2023-04-28T02:40:58.775Z,23.85
2023-04-28T02:41:58.799Z,23.85
2023-04-28T02:42:58.814Z,23.85
2023-04-28T02:43:58.833Z,23.85
2023-04-28T02:44:58.854Z,23.85
2023-04-28T02:45:58.881Z,23.86
2023-04-28T02:46:58.941Z,23.85
2023-04-28T02:47:58.943Z,23.85
2023-04-28T02:48:58.926Z,23.84
2023-04-28T02:49:58.962Z,23.84
2023-04-28T02:50:59.003Z,23.84
2023-04-28T02:51:58.966Z,23.84
2023-04-28T02:52:58.991Z,23.84
2023-04-28T02:53:59.009Z,23.83
2023-04-28T02:54:59.030Z,23.84
2023-04-28T02:55:59.061Z,23.84
2023-04-28T02:56:59.082Z,23.84
2023-04-28T02:57:59.105Z,23.84
2023-04-28T02:58:59.138Z,23.84
2023-04-28T02:59:59.162Z,23.84
2023-04-28T03:00:59.199Z,23.85
2023-04-28T03:01:59.220Z,23.84
2023-04-28T03:02:59.415Z,23.84
2023-04-28T03:03:59.367Z,23.84
2023-04-28T03:04:59.315Z,23.84
2023-04-28T03:05:59.330Z,23.84
2023-04-28T03:06:59.376Z,23.83
2023-04-28T03:07:59.365Z,23.84
2023-04-28T03:08:59.398Z,23.84
2023-04-28T03:09:59.433Z,23.83
2023-04-28T03:10:59.470Z,23.83
2023-04-28T03:11:59.483Z,23.83
2023-04-28T03:12:59.511Z,23.83
2023-04-28T03:13:59.535Z,23.83
2023-04-28T03:14:59.577Z,23.82
2023-04-28T03:15:59.740Z,23.82
2023-04-28T03:16:59.635Z,23.82
2023-04-28T03:17:59.707Z,23.82
2023-04-28T03:18:59.694Z,23.83
2023-04-28T03:19:59.714Z,23.83
2023-04-28T03:20:59.733Z,23.83
2023-04-28T03:21:59.767Z,23.83
2023-04-28T03:22:59.816Z,23.82
2023-04-28T03:23:59.812Z,23.82
2023-04-28T03:24:59.830Z,23.82
2023-04-28T03:25:59.866Z,23.82
2023-04-28T03:26:59.882Z,23.83
2023-04-28T03:27:59.905Z,23.82
2023-04-28T03:29:00.111Z,23.82
2023-04-28T03:29:59.937Z,23.82
2023-04-28T03:30:59.969Z,23.81
2023-04-28T03:32:00.001Z,23.81
2023-04-28T03:33:00.083Z,23.82
2023-04-28T03:34:00.058Z,23.82
2023-04-28T03:35:00.061Z,23.83
2023-04-28T03:36:00.082Z,23.83
2023-04-28T03:37:00.122Z,23.82
2023-04-28T03:38:00.112Z,23.83
2023-04-28T03:39:00.152Z,23.83
2023-04-28T03:40:00.195Z,23.81
2023-04-28T03:41:00.178Z,23.82
2023-04-28T03:42:00.204Z,23.83
2023-04-28T03:43:00.409Z,23.82
2023-04-28T03:44:00.231Z,23.83
2023-04-28T03:45:00.272Z,23.82
2023-04-28T03:46:00.331Z,23.82
2023-04-28T03:47:00.289Z,23.82
2023-04-28T03:48:00.328Z,23.82
2023-04-28T03:49:00.341Z,23.82
2023-04-28T03:50:00.348Z,23.83
2023-04-28T03:51:00.346Z,23.82
2023-04-28T03:52:00.379Z,23.82
2023-04-28T03:53:00.384Z,23.82
2023-04-28T03:54:00.408Z,23.82
2023-04-28T03:55:00.453Z,23.81
2023-04-28T03:56:00.453Z,23.81
2023-04-28T03:57:00.468Z,23.81
2023-04-28T03:58:00.481Z,23.81
2023-04-28T03:59:00.485Z,23.81
2023-04-28T04:00:00.514Z,23.82
2023-04-28T04:01:00.524Z,23.81
2023-04-28T04:02:00.608Z,23.82
2023-04-28T04:03:00.722Z,23.82
2023-04-28T04:04:00.788Z,23.82
2023-04-28T04:05:00.793Z,23.82
2023-04-28T04:06:00.570Z,23.82
2023-04-28T04:07:00.587Z,23.83
2023-04-28T04:08:00.601Z,23.82
2023-04-28T04:09:00.616Z,23.83
2023-04-28T04:10:02.566Z,23.83
2023-04-28T04:11:00.651Z,23.82
2023-04-28T04:12:00.623Z,23.83
2023-04-28T04:13:00.629Z,23.83
2023-04-28T04:14:00.595Z,23.82
2023-04-28T04:15:00.598Z,23.82
2023-04-28T04:16:00.636Z,23.82
2023-04-28T04:17:00.587Z,23.81
2023-04-28T04:18:00.649Z,23.81
2023-04-28T04:19:00.563Z,23.81
2023-04-28T04:20:00.567Z,23.82
2023-04-28T04:21:00.548Z,23.81
2023-04-28T04:22:00.546Z,23.82
2023-04-28T04:23:00.534Z,23.82
2023-04-28T04:24:00.537Z,23.82
2023-04-28T04:25:00.564Z,23.81
2023-04-28T04:26:00.527Z,23.82
2023-04-28T04:27:00.540Z,23.82
2023-04-28T04:28:00.502Z,23.81
2023-04-28T04:29:00.492Z,23.83
2023-04-28T04:30:00.508Z,23.83
2023-04-28T04:31:00.523Z,23.82
2023-04-28T04:32:00.478Z,23.82
2023-04-28T04:33:00.490Z,23.82
2023-04-28T04:34:00.472Z,23.82
2023-04-28T04:35:00.459Z,23.82
2023-04-28T04:36:00.449Z,23.82
2023-04-28T04:37:00.449Z,23.82
2023-04-28T04:38:00.435Z,23.81
2023-04-28T04:39:00.433Z,23.81
2023-04-28T04:40:00.428Z,23.81
2023-04-28T04:41:00.436Z,23.82
2023-04-28T04:42:05.177Z,23.81
2023-04-28T04:43:00.439Z,23.80
2023-04-28T04:44:00.405Z,23.80
2023-04-28T04:45:00.388Z,23.81
2023-04-28T04:46:00.392Z,23.81
2023-04-28T04:47:00.541Z,23.81
2023-04-28T04:48:00.433Z,23.81
2023-04-28T04:49:00.365Z,23.81
2023-04-28T04:50:00.355Z,23.81
2023-04-28T04:51:00.356Z,23.82
2023-04-28T04:52:00.355Z,23.81
2023-04-28T04:53:00.345Z,23.82
2023-04-28T04:54:00.332Z,23.82
2023-04-28T04:55:00.336Z,23.82
2023-04-28T04:56:00.346Z,23.81
2023-04-28T04:57:00.310Z,23.81
2023-04-28T04:58:00.308Z,23.81
2023-04-28T04:59:00.317Z,23.81
2023-04-28T05:00:00.287Z,23.81
2023-04-28T05:01:00.287Z,23.82
2023-04-28T05:02:00.307Z,23.81
2023-04-28T05:03:00.455Z,23.81
2023-04-28T05:04:00.528Z,23.81
2023-04-28T05:05:12.082Z,23.81
2023-04-28T05:06:00.244Z,23.80
2023-04-28T05:07:00.482Z,23.81
2023-04-28T05:08:00.236Z,23.82
2023-04-28T05:09:00.228Z,23.82
2023-04-28T05:10:00.229Z,23.81
2023-04-28T05:11:00.224Z,23.81
2023-04-28T05:12:00.493Z,23.81
2023-04-28T05:13:00.201Z,23.80
2023-04-28T05:14:00.197Z,23.82
2023-04-28T05:15:00.212Z,23.82
2023-04-28T05:16:00.284Z,23.82
2023-04-28T05:17:00.252Z,23.82
2023-04-28T05:18:00.248Z,23.83
2023-04-28T05:19:00.174Z,23.82
2023-04-28T05:20:00.176Z,23.82
2023-04-28T05:21:00.156Z,23.82
2023-04-28T05:22:00.505Z,23.82
2023-04-28T05:23:00.156Z,23.83
2023-04-28T05:24:00.522Z,23.83
2023-04-28T05:25:00.165Z,23.83
2023-04-28T05:26:00.150Z,23.84
2023-04-28T05:27:00.149Z,23.85
2023-04-28T05:28:00.513Z,23.85
2023-04-28T05:29:00.496Z,23.86
2023-04-28T05:30:00.183Z,23.87
2023-04-28T05:31:00.163Z,23.86
2023-04-28T05:32:00.212Z,23.87
2023-04-28T05:33:00.192Z,23.87
2023-04-28T05:34:00.500Z,23.87
2023-04-28T05:35:00.058Z,23.89
2023-04-28T05:36:00.124Z,23.89
2023-04-28T05:37:00.060Z,23.91
2023-04-28T05:38:00.056Z,23.92
2023-04-28T05:39:00.747Z,23.92
2023-04-28T05:40:00.045Z,23.92
2023-04-28T05:41:00.040Z,23.93
2023-04-28T05:42:00.521Z,23.94
2023-04-28T05:43:00.039Z,23.93
2023-04-28T05:44:00.578Z,23.94
2023-04-28T05:45:00.044Z,23.95
2023-04-28T05:46:00.128Z,23.97
2023-04-28T05:47:02.582Z,23.97
2023-04-28T05:48:00.074Z,23.98
2023-04-28T05:49:00.012Z,23.98
2023-04-28T05:50:00.009Z,23.98
2023-04-28T05:50:59.989Z,23.99
2023-04-28T05:52:00.016Z,23.99
2023-04-28T05:52:59.979Z,24.00
2023-04-28T05:54:07.394Z,24.01
2023-04-28T05:55:00.432Z,23.99
2023-04-28T05:56:03.145Z,24.00
2023-04-28T05:57:01.421Z,23.99
2023-04-28T05:58:00.535Z,23.99
2023-04-28T05:59:01.561Z,23.99
2023-04-28T06:00:15.765Z,23.99
2023-04-28T06:01:03.322Z,23.99
2023-04-28T06:02:00.205Z,23.97
2023-04-28T06:03:00.272Z,23.97
2023-04-28T06:04:01.244Z,23.97
2023-04-28T06:05:00.227Z,23.97
2023-04-28T06:06:05.181Z,23.97
2023-04-28T06:07:00.530Z,23.96
2023-04-28T06:08:00.517Z,23.96
2023-04-28T06:09:00.071Z,23.96
2023-04-28T06:10:00.063Z,23.95
2023-04-28T06:11:00.067Z,23.96
2023-04-28T06:12:00.516Z,23.94
2023-04-28T06:13:00.048Z,23.94
2023-04-28T06:14:00.025Z,23.95
2023-04-28T06:15:00.072Z,23.94
2023-04-28T06:16:00.081Z,23.94
2023-04-28T06:17:00.525Z,23.94
2023-04-28T06:18:00.125Z,23.93
2023-04-28T06:19:00.016Z,23.93
2023-04-28T06:19:59.994Z,23.94
2023-04-28T06:21:00.000Z,23.93
2023-04-28T06:22:00.022Z,23.93
2023-04-28T06:23:00.030Z,23.93
2023-04-28T06:23:59.956Z,23.92
2023-04-28T06:24:59.953Z,23.92
2023-04-28T06:25:59.979Z,23.92
2023-04-28T06:27:00.025Z,23.92
2023-04-28T06:28:00.034Z,23.92
2023-04-28T06:28:59.923Z,23.91
2023-04-28T06:29:59.924Z,23.91
2023-04-28T06:30:59.981Z,23.92
2023-04-28T06:32:00.032Z,23.91
2023-04-28T06:32:59.919Z,23.91
2023-04-28T06:33:59.896Z,23.91
2023-04-28T06:35:00.045Z,23.92
2023-04-28T06:35:59.880Z,23.92
2023-04-28T06:37:00.041Z,23.92
2023-04-28T06:37:59.858Z,23.92
2023-04-28T06:38:59.860Z,23.91
2023-04-28T06:39:59.848Z,23.90
2023-04-28T06:40:59.846Z,23.90
2023-04-28T06:42:00.028Z,23.89
2023-04-28T06:42:59.839Z,23.90
2023-04-28T06:43:59.847Z,23.90
2023-04-28T06:44:59.821Z,23.89
2023-04-28T06:45:59.988Z,23.89
2023-04-28T06:47:00.086Z,23.89
2023-04-28T06:48:00.194Z,23.90
2023-04-28T06:48:59.828Z,23.89
2023-04-28T06:49:59.808Z,23.90
2023-04-28T06:50:59.813Z,23.90
2023-04-28T06:51:59.790Z,23.90
2023-04-28T06:53:00.029Z,23.90
2023-04-28T06:54:07.203Z,23.90
2023-04-28T06:54:59.751Z,23.89
2023-04-28T06:55:59.749Z,23.89
2023-04-28T06:56:59.741Z,23.89
2023-04-28T06:58:00.192Z,23.89
2023-04-28T06:59:00.220Z,23.89
2023-04-28T06:59:59.735Z,23.89
2023-04-28T07:00:59.801Z,23.89
2023-04-28T07:02:00.065Z,23.90
2023-04-28T07:03:00.138Z,23.90
2023-04-28T07:03:59.820Z,23.90
2023-04-28T07:04:59.813Z,23.90
2023-04-28T07:05:59.698Z,23.90
2023-04-28T07:07:02.930Z,23.90
2023-04-28T07:08:00.267Z,23.90
2023-04-28T07:08:59.680Z,23.90
2023-04-28T07:09:59.652Z,23.90
2023-04-28T07:11:00.052Z,23.90
2023-04-28T07:12:00.131Z,23.90
2023-04-28T07:13:00.052Z,23.89
2023-04-28T07:13:59.628Z,23.89
2023-04-28T07:14:59.621Z,23.88
2023-04-28T07:15:59.643Z,23.87
2023-04-28T07:16:59.608Z,23.88
2023-04-28T07:18:00.077Z,23.89
2023-04-28T07:18:59.600Z,23.88
2023-04-28T07:19:59.594Z,23.88
2023-04-28T07:20:59.577Z,23.88
2023-04-28T07:22:02.795Z,23.88
2023-04-28T07:23:00.075Z,23.88
2023-04-28T07:23:59.551Z,23.88
2023-04-28T07:25:00.058Z,23.88
2023-04-28T07:25:59.544Z,23.88
2023-04-28T07:26:59.560Z,23.88
2023-04-28T07:27:59.553Z,23.88
2023-04-28T07:28:59.550Z,23.88
2023-04-28T07:29:59.557Z,23.88
2023-04-28T07:30:59.522Z,23.88
2023-04-28T07:31:59.578Z,23.88
2023-04-28T07:32:59.674Z,23.88
2023-04-28T07:33:59.495Z,23.88
2023-04-28T07:34:59.503Z,23.88
2023-04-28T07:35:59.566Z,23.89
2023-04-28T07:36:59.485Z,23.89
2023-04-28T07:37:59.494Z,23.88
2023-04-28T07:38:59.488Z,23.88
2023-04-28T07:39:59.468Z,23.88
2023-04-28T07:40:59.576Z,23.88
2023-04-28T07:41:59.567Z,23.89
2023-04-28T07:42:59.582Z,23.88
2023-04-28T07:43:59.454Z,23.89
2023-04-28T07:44:59.425Z,23.89
2023-04-28T07:45:59.452Z,23.89
2023-04-28T07:46:59.404Z,23.89
2023-04-28T07:47:59.608Z,23.89
2023-04-28T07:48:59.405Z,23.90
2023-04-28T07:49:59.569Z,23.89
2023-04-28T07:50:59.385Z,23.89
2023-04-28T07:51:59.584Z,23.89
2023-04-28T07:52:59.885Z,23.89
2023-04-28T07:53:59.394Z,23.89
2023-04-28T07:55:00.431Z,23.89
2023-04-28T07:55:59.390Z,23.89
2023-04-28T07:56:59.800Z,23.89
2023-04-28T07:58:00.334Z,23.89
2023-04-28T07:58:59.335Z,23.89
2023-04-28T07:59:59.318Z,23.89
2023-04-28T08:00:59.327Z,23.89
2023-04-28T08:01:59.591Z,23.90
2023-04-28T08:02:59.507Z,23.89
2023-04-28T08:03:59.575Z,23.89
2023-04-28T08:04:59.570Z,23.89
2023-04-28T08:05:59.358Z,23.89
2023-04-28T08:06:59.275Z,23.89
2023-04-28T08:07:59.265Z,23.89
2023-04-28T08:08:59.261Z,23.89
2023-04-28T08:09:59.252Z,23.89
2023-04-28T08:10:59.271Z,23.89
2023-04-28T08:11:59.580Z,23.89
2023-04-28T08:12:59.566Z,23.89
2023-04-28T08:13:59.223Z,23.89
2023-04-28T08:14:59.217Z,23.91
2023-04-28T08:15:59.217Z,23.90
2023-04-28T08:16:59.204Z,23.90
2023-04-28T08:17:59.240Z,23.91
2023-04-28T08:18:59.378Z,23.92
2023-04-28T08:19:59.186Z,23.92
2023-04-28T08:20:59.184Z,23.93
2023-04-28T08:21:59.574Z,23.92
2023-04-28T08:22:59.169Z,23.92
2023-04-28T08:23:59.159Z,23.92
2023-04-28T08:24:59.152Z,23.92
2023-04-28T08:25:59.155Z,23.92
2023-04-28T08:26:59.595Z,23.92
2023-04-28T08:27:59.583Z,23.92
2023-04-28T08:28:59.149Z,23.92
2023-04-28T08:29:59.632Z,23.92
2023-04-28T08:30:59.181Z,23.92
2023-04-28T08:31:59.193Z,23.91
2023-04-28T08:32:59.611Z,23.92
2023-04-28T08:33:59.596Z,23.92
2023-04-28T08:34:59.185Z,23.92
2023-04-28T08:35:59.185Z,23.91
2023-04-28T08:36:59.184Z,23.92
2023-04-28T08:38:00.194Z,23.92
2023-04-28T08:38:59.203Z,23.91
2023-04-28T08:39:59.586Z,23.92
2023-04-28T08:40:59.233Z,23.91
2023-04-28T08:41:59.231Z,23.92
2023-04-28T08:42:59.707Z,23.91
2023-04-28T08:44:02.449Z,23.91
2023-04-28T08:44:59.234Z,23.91
2023-04-28T08:45:59.224Z,23.91
2023-04-28T08:46:59.373Z,23.91
2023-04-28T08:47:59.662Z,23.92
2023-04-28T08:48:59.209Z,23.91
2023-04-28T08:49:59.206Z,23.92
2023-04-28T08:50:59.200Z,23.95
2023-04-28T08:51:59.307Z,23.98
2023-04-28T08:52:59.618Z,24.04
2023-04-28T08:54:18.863Z,24.11
2023-04-28T08:54:59.245Z,24.16
2023-04-28T08:55:59.213Z,24.21
2023-04-28T08:56:59.225Z,24.27
2023-04-28T08:57:59.191Z,24.34
2023-04-28T08:58:59.168Z,24.40
2023-04-28T08:59:59.153Z,24.45
2023-04-28T09:00:59.318Z,24.50
2023-04-28T09:01:59.188Z,24.54
2023-04-28T09:02:59.762Z,24.58
2023-04-28T09:03:59.485Z,24.62
2023-04-28T09:04:59.831Z,24.67
2023-04-28T09:05:59.183Z,24.71
2023-04-28T09:06:59.153Z,24.76
2023-04-28T09:07:59.746Z,24.77
2023-04-28T09:08:59.345Z,24.79
2023-04-28T09:09:59.371Z,24.79
2023-04-28T09:10:59.207Z,24.79
2023-04-28T09:11:59.167Z,24.78
2023-04-28T09:12:59.116Z,24.78
2023-04-28T09:13:59.212Z,24.78
2023-04-28T09:14:59.542Z,24.76
2023-04-28T09:15:59.276Z,24.75
2023-04-28T09:16:59.235Z,24.73
2023-04-28T09:17:59.289Z,24.72
2023-04-28T09:18:59.358Z,24.70
2023-04-28T09:19:59.152Z,24.69
2023-04-28T09:21:01.409Z,24.70
2023-04-28T09:22:00.868Z,24.71
2023-04-28T09:22:59.165Z,24.73
2023-04-28T09:23:59.093Z,24.75
2023-04-28T09:24:59.097Z,24.76
2023-04-28T09:25:59.145Z,24.77
2023-04-28T09:26:59.002Z,24.71
2023-04-28T09:27:59.194Z,24.62
2023-04-28T09:28:59.116Z,24.57
2023-04-28T09:29:59.089Z,24.52
2023-04-28T09:30:58.956Z,24.50
2023-04-28T09:31:59.036Z,24.48
2023-04-28T09:32:59.145Z,24.47
2023-04-28T09:33:58.934Z,24.47
2023-04-28T09:34:58.926Z,24.45
2023-04-28T09:35:58.919Z,24.43
2023-04-28T09:36:58.907Z,24.41
2023-04-28T09:37:59.112Z,24.39
2023-04-28T09:38:58.913Z,24.38
2023-04-28T09:39:59.881Z,24.35
2023-04-28T09:40:59.152Z,24.36
2023-04-28T09:41:59.136Z,24.37
2023-04-28T09:43:00.870Z,24.40
2023-04-28T09:44:00.356Z,24.42
2023-04-28T09:44:58.901Z,24.45
2023-04-28T09:45:58.973Z,24.48
2023-04-28T09:47:02.431Z,24.51
2023-04-28T09:47:59.187Z,24.53
2023-04-28T09:48:58.875Z,24.56
2023-04-28T09:49:59.126Z,24.59
2023-04-28T09:50:58.853Z,24.61
2023-04-28T09:51:59.266Z,24.63
2023-04-28T09:52:59.268Z,24.66
2023-04-28T09:53:58.845Z,24.67
2023-04-28T09:54:58.866Z,24.69
2023-04-28T09:55:58.844Z,24.71
2023-04-28T09:56:59.127Z,24.74
2023-04-28T09:57:59.168Z,24.75
2023-04-28T09:58:58.805Z,24.76
2023-04-28T09:59:58.937Z,24.78
2023-04-28T10:00:58.824Z,24.79
2023-04-28T10:01:58.776Z,24.82
2023-04-28T10:02:58.868Z,24.84
2023-04-28T10:03:59.245Z,24.86
2023-04-28T10:04:58.921Z,24.87
2023-04-28T10:05:58.869Z,24.88
2023-04-28T10:06:58.828Z,24.90
2023-04-28T10:07:58.837Z,24.92
2023-04-28T10:08:59.246Z,24.92
2023-04-28T10:09:58.892Z,24.93
2023-04-28T10:10:58.932Z,24.95
2023-04-28T10:11:58.902Z,24.96
2023-04-28T10:12:58.904Z,24.94
2023-04-28T10:13:59.144Z,24.94
2023-04-28T10:14:58.938Z,24.96
2023-04-28T10:15:59.165Z,24.96
2023-04-28T10:16:58.988Z,24.93
2023-04-28T10:17:59.041Z,24.92
2023-04-28T10:18:59.212Z,24.92
2023-04-28T10:19:59.003Z,24.93
2023-04-28T10:20:59.012Z,24.91
2023-04-28T10:21:59.033Z,24.91
2023-04-28T10:22:59.153Z,24.91
2023-04-28T10:23:59.138Z,24.90
2023-04-28T10:24:59.070Z,24.90
2023-04-28T10:25:59.090Z,24.90
2023-04-28T10:26:59.106Z,24.90
2023-04-28T10:27:59.137Z,24.89
2023-04-28T10:28:59.636Z,24.88
2023-04-28T10:29:59.147Z,24.88
2023-04-28T10:30:59.675Z,24.87
2023-04-28T10:31:59.180Z,24.87
2023-04-28T10:32:59.251Z,24.87
2023-04-28T10:33:59.641Z,24.86
2023-04-28T10:34:59.245Z,24.86
2023-04-28T10:35:59.243Z,24.85
2023-04-28T10:36:59.257Z,24.85
2023-04-28T10:37:59.713Z,24.85
2023-04-28T10:38:59.298Z,24.85
2023-04-28T10:39:59.318Z,24.84
2023-04-28T10:40:59.648Z,24.83
2023-04-28T10:42:00.378Z,24.84
2023-04-28T10:42:59.373Z,24.82
2023-04-28T10:43:59.397Z,24.82
2023-04-28T10:44:59.419Z,24.83
2023-04-28T10:45:59.480Z,24.82
2023-04-28T10:46:59.823Z,24.82
2023-04-28T10:47:59.528Z,24.82
2023-04-28T10:48:59.661Z,24.81
2023-04-28T10:49:59.556Z,24.81
2023-04-28T10:50:59.564Z,24.81
2023-04-28T10:51:59.570Z,24.81
2023-04-28T10:52:59.591Z,24.81
2023-04-28T10:53:59.654Z,24.80
2023-04-28T10:55:01.735Z,24.80
2023-04-28T10:55:59.663Z,24.80
2023-04-28T10:56:59.643Z,24.80
2023-04-28T10:57:59.655Z,24.79
2023-04-28T10:58:59.710Z,24.79
2023-04-28T10:59:59.612Z,24.78
2023-04-28T11:00:59.604Z,24.79
2023-04-28T11:01:59.618Z,24.79
2023-04-28T11:02:59.741Z,24.79
2023-04-28T11:03:59.921Z,24.78
2023-04-28T11:04:59.727Z,24.77
2023-04-28T11:05:59.570Z,24.77
2023-04-28T11:06:59.583Z,24.78
2023-04-28T11:08:00.913Z,24.78
2023-04-28T11:08:59.583Z,24.77
2023-04-28T11:09:59.657Z,24.77
2023-04-28T11:10:59.803Z,24.77
2023-04-28T11:12:00.224Z,24.77
2023-04-28T11:12:59.698Z,24.77
2023-04-28T11:13:59.751Z,24.76
2023-04-28T11:14:59.773Z,24.76
2023-04-28T11:16:00.237Z,24.76
2023-04-28T11:17:00.166Z,24.76
2023-04-28T11:17:59.932Z,24.76
2023-04-28T11:18:59.903Z,24.76
2023-04-28T11:20:00.201Z,24.76
2023-04-28T11:20:59.950Z,24.77
2023-04-28T11:21:59.992Z,24.76
2023-04-28T11:23:00.031Z,24.77
2023-04-28T11:23:59.179Z,24.76
2023-04-28T11:25:00.057Z,24.76
2023-04-28T11:26:00.152Z,24.76
2023-04-28T11:27:00.117Z,24.76
2023-04-28T11:28:00.148Z,24.75
2023-04-28T11:29:00.192Z,24.76
2023-04-28T11:30:00.247Z,24.75
2023-04-28T11:31:00.663Z,24.76
2023-04-28T11:32:00.339Z,24.76
2023-04-28T11:33:00.314Z,24.76
2023-04-28T11:34:00.377Z,24.75
2023-04-28T11:35:00.348Z,24.76
2023-04-28T11:36:00.354Z,24.77
2023-04-28T11:37:00.667Z,24.77
2023-04-28T11:38:00.410Z,24.78
2023-04-28T11:39:00.693Z,24.78
2023-04-28T11:40:00.470Z,24.78
2023-04-28T11:41:00.500Z,24.78
2023-04-28T11:42:00.536Z,24.78
2023-04-28T11:43:01.782Z,24.78
2023-04-28T11:44:00.670Z,24.78
2023-04-28T11:45:00.601Z,24.77
2023-04-28T11:46:00.735Z,24.77
2023-04-28T11:47:01.460Z,24.78
2023-04-28T11:48:00.737Z,24.77
2023-04-28T11:49:00.721Z,24.77
2023-04-28T11:50:00.749Z,24.76
2023-04-28T11:51:00.786Z,24.75
2023-04-28T11:52:00.814Z,24.74
2023-04-28T11:53:00.896Z,24.73
2023-04-28T11:54:00.892Z,24.73
2023-04-28T11:55:01.057Z,24.72
2023-04-28T11:56:00.961Z,24.72
2023-04-28T11:57:01.184Z,24.72
2023-04-28T11:58:01.032Z,24.72
2023-04-28T11:59:01.850Z,24.71
2023-04-28T12:00:01.088Z,24.71
2023-04-28T12:01:01.062Z,24.72
2023-04-28T12:02:01.081Z,24.71
2023-04-28T12:03:01.128Z,24.72
2023-04-28T12:04:01.191Z,24.72
2023-04-28T12:05:01.089Z,24.72
2023-04-28T12:06:01.052Z,24.71
2023-04-28T12:07:01.015Z,24.72
2023-04-28T12:08:01.004Z,24.73
2023-04-28T12:09:01.183Z,24.73
2023-04-28T12:10:00.991Z,24.72
2023-04-28T12:11:01.008Z,24.73
2023-04-28T12:12:00.977Z,24.73
2023-04-28T12:13:00.969Z,24.73
2023-04-28T12:14:01.192Z,24.73
2023-04-28T12:15:00.958Z,24.73
2023-04-28T12:16:00.961Z,24.72
2023-04-28T12:17:00.935Z,24.72
2023-04-28T12:18:01.002Z,24.72
2023-04-28T12:19:00.930Z,24.72
2023-04-28T12:20:00.929Z,24.72
2023-04-28T12:21:00.909Z,24.72
2023-04-28T12:22:00.904Z,24.72
2023-04-28T12:23:00.891Z,24.72
2023-04-28T12:24:00.892Z,24.72
2023-04-28T12:25:00.886Z,24.73
2023-04-28T12:26:00.871Z,24.73
2023-04-28T12:27:00.977Z,24.74
2023-04-28T12:28:00.858Z,24.73
2023-04-28T12:29:00.881Z,24.73
2023-04-28T12:30:00.842Z,24.73
2023-04-28T12:31:00.874Z,24.73
2023-04-28T12:32:00.826Z,24.74
2023-04-28T12:33:00.948Z,24.74
2023-04-28T12:34:00.884Z,24.75
2023-04-28T12:35:00.883Z,24.75
2023-04-28T12:36:00.912Z,24.75
2023-04-28T12:37:00.966Z,24.74
2023-04-28T12:38:01.001Z,24.74
2023-04-28T12:39:01.059Z,24.75
2023-04-28T12:40:01.034Z,24.74
2023-04-28T12:41:01.087Z,24.75
2023-04-28T12:42:01.099Z,24.75
2023-04-28T12:43:01.160Z,24.74
2023-04-28T12:44:01.201Z,24.75
2023-04-28T12:45:01.214Z,24.75
2023-04-28T12:46:01.282Z,24.75
2023-04-28T12:47:01.283Z,24.74
2023-04-28T12:48:01.372Z,24.74
2023-04-28T12:49:01.704Z,24.74
2023-04-28T12:50:01.400Z,24.74
2023-04-28T12:51:02.205Z,24.74
2023-04-28T12:52:01.475Z,24.74
2023-04-28T12:53:01.502Z,24.74